Hauptseite
METAR-TAF:

METAR-TAF

Flughäfen :

Flughafen N’Djamena

N’Djamena, Tschad

Breite: 12-08N, Länge: 015-02E, Höhe: 295 m

Beobachtung

Neuester Wetterbericht von vor 39 Minuten, um 20:00 UTC
Wind 9 kt aus Nord
Temperatur 34°C
Luftfeuchtigkeit 4%
Luftdruck 1008 hPa
Sichtweite 10 km oder mehr
keine Wolken unter 1500 m und keine Kumulonimbus oder Gewitterwolken

METAR: FTTJ 252000Z 36009KT CAVOK 34/M14 Q1008 NOSIG

Zeit: 21:39 (20:39 UTC)

Prognose

Neuester Wetterbericht von vor 3 Stunden und 39 Minuten, um 17:00 UTC
Gültige Prognose vom 25 um 18 UTC bis 26 um 24 UTC
Wind 11 kt aus Nord
Sichtweite 10 km oder mehr
keine Wolken unter 1500 m und keine Kumulonimbus oder Gewitterwolken
Zeitweise
vom 26 um 05 UTC bis 26 um 08 UTC
Sichtweite: 4000 m
verbreitet Staub

TAF: FTTJ 251700Z 2518/2624 01011KT CAVOK TEMPO 2605/2608 4000 DU

Wetterbeobachtungen und Prognosen von mehr als 4000 Flughäfen (METAR und TAF Bericht).

Die verfügbaren Stationen werden durch gelbe und rote Markierungen auf der Karte dargestellt.

Führen Sie die Maus auf sie, um den Namen der Station zu sehen.

Darauf klicken, um die Beobachtung von Wetterbeobachtungen und Prognosen zu sehen.

Um die Karte zu ändern : klicken Sie auf den grünen Tasten mit einem schwarzen Kreuz Zum Vergrößern, auf den grünen Button mit einem Gedankenstrich zu verkleinern, oder auf die grünen Pfeile für benachbarte Karten.


METAR-TAF: